sensor_id;sensor_type;location;lat;lon;timestamp;temperature;humidity
26304;DHT22;57113;48.680;8.890;2023-01-24T00:00:05;5.50;99.90
26304;DHT22;57113;48.680;8.890;2023-01-24T00:02:33;5.40;99.90
26304;DHT22;57113;48.680;8.890;2023-01-24T00:04:59;5.50;99.90
26304;DHT22;57113;48.680;8.890;2023-01-24T00:07:24;5.70;99.90
26304;DHT22;57113;48.680;8.890;2023-01-24T00:09:50;5.90;99.90
26304;DHT22;57113;48.680;8.890;2023-01-24T00:12:16;6.10;99.90
26304;DHT22;57113;48.680;8.890;2023-01-24T00:14:41;6.20;99.90
26304;DHT22;57113;48.680;8.890;2023-01-24T00:17:07;6.20;99.90
26304;DHT22;57113;48.680;8.890;2023-01-24T00:19:35;6.20;99.90
26304;DHT22;57113;48.680;8.890;2023-01-24T00:22:03;6.20;99.90
26304;DHT22;57113;48.680;8.890;2023-01-24T00:24:28;6.10;99.90
26304;DHT22;57113;48.680;8.890;2023-01-24T00:26:55;6.00;99.90
26304;DHT22;57113;48.680;8.890;2023-01-24T00:29:21;6.00;99.90
26304;DHT22;57113;48.680;8.890;2023-01-24T00:31:46;5.90;99.90
26304;DHT22;57113;48.680;8.890;2023-01-24T00:34:12;5.80;99.90
26304;DHT22;57113;48.680;8.890;2023-01-24T00:36:37;5.80;99.90
26304;DHT22;57113;48.680;8.890;2023-01-24T00:39:03;5.70;99.90
26304;DHT22;57113;48.680;8.890;2023-01-24T00:41:29;5.70;99.90
26304;DHT22;57113;48.680;8.890;2023-01-24T00:43:54;5.60;99.90
26304;DHT22;57113;48.680;8.890;2023-01-24T00:46:20;5.60;99.90
26304;DHT22;57113;48.680;8.890;2023-01-24T00:48:46;5.60;99.90
26304;DHT22;57113;48.680;8.890;2023-01-24T00:51:12;5.50;99.90
26304;DHT22;57113;48.680;8.890;2023-01-24T00:53:37;5.50;99.90
26304;DHT22;57113;48.680;8.890;2023-01-24T00:56:03;5.50;99.90
26304;DHT22;57113;48.680;8.890;2023-01-24T00:58:29;5.50;99.90
26304;DHT22;57113;48.680;8.890;2023-01-24T01:00:55;5.40;99.90
26304;DHT22;57113;48.680;8.890;2023-01-24T01:03:22;5.40;99.90
26304;DHT22;57113;48.680;8.890;2023-01-24T01:05:48;5.60;99.90
26304;DHT22;57113;48.680;8.890;2023-01-24T01:08:14;5.70;99.90
26304;DHT22;57113;48.680;8.890;2023-01-24T01:10:40;6.00;99.90
26304;DHT22;57113;48.680;8.890;2023-01-24T01:13:06;6.20;99.90
26304;DHT22;57113;48.680;8.890;2023-01-24T01:15:32;6.30;99.90
26304;DHT22;57113;48.680;8.890;2023-01-24T01:17:58;6.20;99.90
26304;DHT22;57113;48.680;8.890;2023-01-24T01:20:24;6.20;99.90
26304;DHT22;57113;48.680;8.890;2023-01-24T01:22:50;6.10;99.90
26304;DHT22;57113;48.680;8.890;2023-01-24T01:25:15;6.10;99.90
26304;DHT22;57113;48.680;8.890;2023-01-24T01:27:41;6.00;99.90
26304;DHT22;57113;48.680;8.890;2023-01-24T01:30:07;5.90;99.90
26304;DHT22;57113;48.680;8.890;2023-01-24T01:32:33;5.80;99.90
26304;DHT22;57113;48.680;8.890;2023-01-24T01:34:59;5.80;99.90
26304;DHT22;57113;48.680;8.890;2023-01-24T01:37:24;5.70;99.90
26304;DHT22;57113;48.680;8.890;2023-01-24T01:39:50;5.70;99.90
26304;DHT22;57113;48.680;8.890;2023-01-24T01:42:16;5.70;99.90
26304;DHT22;57113;48.680;8.890;2023-01-24T01:44:42;5.60;99.90
26304;DHT22;57113;48.680;8.890;2023-01-24T01:47:26;5.60;99.90
26304;DHT22;57113;48.680;8.890;2023-01-24T01:50:18;5.50;99.90
26304;DHT22;57113;48.680;8.890;2023-01-24T01:52:49;5.50;99.90
26304;DHT22;57113;48.680;8.890;2023-01-24T01:55:18;5.50;99.90
26304;DHT22;57113;48.680;8.890;2023-01-24T01:57:45;5.50;99.90
26304;DHT22;57113;48.680;8.890;2023-01-24T02:00:17;5.50;99.90
26304;DHT22;57113;48.680;8.890;2023-01-24T02:02:46;5.40;99.90
26304;DHT22;57113;48.680;8.890;2023-01-24T02:05:16;5.50;99.90
26304;DHT22;57113;48.680;8.890;2023-01-24T02:07:57;5.70;99.90
26304;DHT22;57113;48.680;8.890;2023-01-24T02:10:25;5.90;99.90
26304;DHT22;57113;48.680;8.890;2023-01-24T02:13:11;6.20;99.90
26304;DHT22;57113;48.680;8.890;2023-01-24T02:15:37;6.30;99.90
26304;DHT22;57113;48.680;8.890;2023-01-24T02:18:21;6.30;99.90
26304;DHT22;57113;48.680;8.890;2023-01-24T02:20:47;6.30;99.90
26304;DHT22;57113;48.680;8.890;2023-01-24T02:26:20;6.10;99.90
26304;DHT22;57113;48.680;8.890;2023-01-24T02:31:15;6.00;99.90
26304;DHT22;57113;48.680;8.890;2023-01-24T02:33:41;5.90;99.90
26304;DHT22;57113;48.680;8.890;2023-01-24T02:39:11;5.70;99.90
26304;DHT22;57113;48.680;8.890;2023-01-24T02:42:08;5.70;99.90
26304;DHT22;57113;48.680;8.890;2023-01-24T02:44:48;5.60;99.90
26304;DHT22;57113;48.680;8.890;2023-01-24T02:47:16;5.60;99.90
26304;DHT22;57113;48.680;8.890;2023-01-24T02:49:42;5.60;99.90
26304;DHT22;57113;48.680;8.890;2023-01-24T02:52:08;5.50;99.90
26304;DHT22;57113;48.680;8.890;2023-01-24T02:54:53;5.50;99.90
26304;DHT22;57113;48.680;8.890;2023-01-24T02:57:18;5.50;99.90
26304;DHT22;57113;48.680;8.890;2023-01-24T03:00:05;5.50;99.90
26304;DHT22;57113;48.680;8.890;2023-01-24T03:02:31;5.50;99.90
26304;DHT22;57113;48.680;8.890;2023-01-24T03:04:57;5.50;99.90
26304;DHT22;57113;48.680;8.890;2023-01-24T03:07:22;5.70;99.90
26304;DHT22;57113;48.680;8.890;2023-01-24T03:09:48;5.90;99.90
26304;DHT22;57113;48.680;8.890;2023-01-24T03:12:14;6.10;99.90
26304;DHT22;57113;48.680;8.890;2023-01-24T03:14:58;6.30;99.90
26304;DHT22;57113;48.680;8.890;2023-01-24T03:17:42;6.30;99.90
26304;DHT22;57113;48.680;8.890;2023-01-24T03:20:26;6.30;99.90
26304;DHT22;57113;48.680;8.890;2023-01-24T03:23:10;6.30;99.90
26304;DHT22;57113;48.680;8.890;2023-01-24T03:25:55;6.20;99.90
26304;DHT22;57113;48.680;8.890;2023-01-24T03:28:41;6.10;99.90
26304;DHT22;57113;48.680;8.890;2023-01-24T03:31:25;6.00;99.90
26304;DHT22;57113;48.680;8.890;2023-01-24T03:34:09;5.90;99.90
26304;DHT22;57113;48.680;8.890;2023-01-24T03:36:53;5.80;99.90
26304;DHT22;57113;48.680;8.890;2023-01-24T03:39:19;5.80;99.90
26304;DHT22;57113;48.680;8.890;2023-01-24T03:42:03;5.70;99.90
26304;DHT22;57113;48.680;8.890;2023-01-24T03:44:29;5.70;99.90
26304;DHT22;57113;48.680;8.890;2023-01-24T03:46:55;5.60;99.90
26304;DHT22;57113;48.680;8.890;2023-01-24T03:49:20;5.60;99.90
26304;DHT22;57113;48.680;8.890;2023-01-24T03:52:04;5.50;99.90
26304;DHT22;57113;48.680;8.890;2023-01-24T03:54:48;5.50;99.90
26304;DHT22;57113;48.680;8.890;2023-01-24T03:57:14;5.50;99.90
26304;DHT22;57113;48.680;8.890;2023-01-24T03:59:39;5.50;99.90
26304;DHT22;57113;48.680;8.890;2023-01-24T04:02:05;5.50;99.90
26304;DHT22;57113;48.680;8.890;2023-01-24T04:04:31;5.50;99.90
26304;DHT22;57113;48.680;8.890;2023-01-24T04:07:16;5.60;99.90
26304;DHT22;57113;48.680;8.890;2023-01-24T04:09:42;5.90;99.90
26304;DHT22;57113;48.680;8.890;2023-01-24T04:12:07;6.10;99.90
26304;DHT22;57113;48.680;8.890;2023-01-24T04:14:33;6.30;99.90
26304;DHT22;57113;48.680;8.890;2023-01-24T04:16:59;6.40;99.90
26304;DHT22;57113;48.680;8.890;2023-01-24T04:19:24;6.40;99.90
26304;DHT22;57113;48.680;8.890;2023-01-24T04:21:50;6.40;99.90
26304;DHT22;57113;48.680;8.890;2023-01-24T04:24:15;6.30;99.90
26304;DHT22;57113;48.680;8.890;2023-01-24T04:26:41;6.20;99.90
26304;DHT22;57113;48.680;8.890;2023-01-24T04:29:07;6.10;99.90
26304;DHT22;57113;48.680;8.890;2023-01-24T04:31:32;6.00;99.90
26304;DHT22;57113;48.680;8.890;2023-01-24T04:33:58;6.00;99.90
26304;DHT22;57113;48.680;8.890;2023-01-24T04:36:23;5.90;99.90
26304;DHT22;57113;48.680;8.890;2023-01-24T04:38:49;5.80;99.90
26304;DHT22;57113;48.680;8.890;2023-01-24T04:41:14;5.80;99.90
26304;DHT22;57113;48.680;8.890;2023-01-24T04:43:40;5.70;99.90
26304;DHT22;57113;48.680;8.890;2023-01-24T04:46:06;5.70;99.90
26304;DHT22;57113;48.680;8.890;2023-01-24T04:48:32;5.60;99.90
26304;DHT22;57113;48.680;8.890;2023-01-24T04:50:59;5.60;99.90
26304;DHT22;57113;48.680;8.890;2023-01-24T04:53:25;5.60;99.90
26304;DHT22;57113;48.680;8.890;2023-01-24T04:55:51;5.50;99.90
26304;DHT22;57113;48.680;8.890;2023-01-24T04:58:16;5.50;99.90
26304;DHT22;57113;48.680;8.890;2023-01-24T05:00:42;5.50;99.90
26304;DHT22;57113;48.680;8.890;2023-01-24T05:03:07;5.50;99.90
26304;DHT22;57113;48.680;8.890;2023-01-24T05:05:33;5.50;99.90
26304;DHT22;57113;48.680;8.890;2023-01-24T05:07:59;5.70;99.90
26304;DHT22;57113;48.680;8.890;2023-01-24T05:10:24;6.00;99.90
26304;DHT22;57113;48.680;8.890;2023-01-24T05:12:50;6.20;99.90
26304;DHT22;57113;48.680;8.890;2023-01-24T05:15:16;6.40;99.90
26304;DHT22;57113;48.680;8.890;2023-01-24T05:17:43;6.40;99.90
26304;DHT22;57113;48.680;8.890;2023-01-24T05:20:10;6.40;99.90
26304;DHT22;57113;48.680;8.890;2023-01-24T05:22:36;6.40;99.90
26304;DHT22;57113;48.680;8.890;2023-01-24T05:25:01;6.30;99.90
26304;DHT22;57113;48.680;8.890;2023-01-24T05:27:27;6.20;99.90
26304;DHT22;57113;48.680;8.890;2023-01-24T05:29:53;6.10;99.90
26304;DHT22;57113;48.680;8.890;2023-01-24T05:32:18;6.00;99.90
26304;DHT22;57113;48.680;8.890;2023-01-24T05:34:44;5.90;99.90
26304;DHT22;57113;48.680;8.890;2023-01-24T05:37:09;5.90;99.90
26304;DHT22;57113;48.680;8.890;2023-01-24T05:39:35;5.80;99.90
26304;DHT22;57113;48.680;8.890;2023-01-24T05:42:00;5.80;99.90
26304;DHT22;57113;48.680;8.890;2023-01-24T05:44:26;5.70;99.90
26304;DHT22;57113;48.680;8.890;2023-01-24T05:46:52;5.70;99.90
26304;DHT22;57113;48.680;8.890;2023-01-24T05:49:17;5.60;99.90
26304;DHT22;57113;48.680;8.890;2023-01-24T05:51:43;5.60;99.90
26304;DHT22;57113;48.680;8.890;2023-01-24T05:54:08;5.60;99.90
26304;DHT22;57113;48.680;8.890;2023-01-24T05:56:34;5.50;99.90
26304;DHT22;57113;48.680;8.890;2023-01-24T05:59:00;5.50;99.90
26304;DHT22;57113;48.680;8.890;2023-01-24T06:01:28;5.50;99.90
26304;DHT22;57113;48.680;8.890;2023-01-24T06:03:54;5.50;99.90
26304;DHT22;57113;48.680;8.890;2023-01-24T06:06:21;5.60;99.90
26304;DHT22;57113;48.680;8.890;2023-01-24T06:08:47;5.80;99.90
26304;DHT22;57113;48.680;8.890;2023-01-24T06:11:15;6.10;99.90
26304;DHT22;57113;48.680;8.890;2023-01-24T06:13:41;6.30;99.90
26304;DHT22;57113;48.680;8.890;2023-01-24T06:16:14;6.40;99.90
26304;DHT22;57113;48.680;8.890;2023-01-24T06:18:40;6.40;99.90
26304;DHT22;57113;48.680;8.890;2023-01-24T06:23:42;6.30;99.90
26304;DHT22;57113;48.680;8.890;2023-01-24T06:26:09;6.20;99.90
26304;DHT22;57113;48.680;8.890;2023-01-24T06:28:36;6.20;99.90
26304;DHT22;57113;48.680;8.890;2023-01-24T06:31:05;6.00;99.90
26304;DHT22;57113;48.680;8.890;2023-01-24T06:39:26;5.80;99.90
26304;DHT22;57113;48.680;8.890;2023-01-24T06:41:52;5.80;99.90
26304;DHT22;57113;48.680;8.890;2023-01-24T06:44:18;5.70;99.90
26304;DHT22;57113;48.680;8.890;2023-01-24T06:46:44;5.70;99.90
26304;DHT22;57113;48.680;8.890;2023-01-24T06:49:11;5.60;99.90
26304;DHT22;57113;48.680;8.890;2023-01-24T06:51:36;5.60;99.90
26304;DHT22;57113;48.680;8.890;2023-01-24T06:54:02;5.60;99.90
26304;DHT22;57113;48.680;8.890;2023-01-24T06:56:28;5.60;99.90
26304;DHT22;57113;48.680;8.890;2023-01-24T06:58:53;5.50;99.90
26304;DHT22;57113;48.680;8.890;2023-01-24T07:01:19;5.50;99.90
26304;DHT22;57113;48.680;8.890;2023-01-24T07:03:45;5.50;99.90
26304;DHT22;57113;48.680;8.890;2023-01-24T07:06:10;5.60;99.90
26304;DHT22;57113;48.680;8.890;2023-01-24T07:08:36;5.80;99.90
26304;DHT22;57113;48.680;8.890;2023-01-24T07:11:02;6.00;99.90
26304;DHT22;57113;48.680;8.890;2023-01-24T07:13:28;6.30;99.90
26304;DHT22;57113;48.680;8.890;2023-01-24T07:15:53;6.40;99.90
26304;DHT22;57113;48.680;8.890;2023-01-24T07:18:20;6.40;99.90
26304;DHT22;57113;48.680;8.890;2023-01-24T07:20:46;6.40;99.90
26304;DHT22;57113;48.680;8.890;2023-01-24T07:23:23;6.30;99.90
26304;DHT22;57113;48.680;8.890;2023-01-24T07:25:51;6.30;99.90
26304;DHT22;57113;48.680;8.890;2023-01-24T07:28:16;6.20;99.90
26304;DHT22;57113;48.680;8.890;2023-01-24T07:30:42;6.10;99.90
26304;DHT22;57113;48.680;8.890;2023-01-24T07:33:11;6.00;99.90
26304;DHT22;57113;48.680;8.890;2023-01-24T07:35:37;5.90;99.90
26304;DHT22;57113;48.680;8.890;2023-01-24T07:38:03;5.80;99.90
26304;DHT22;57113;48.680;8.890;2023-01-24T07:40:28;5.80;99.90
26304;DHT22;57113;48.680;8.890;2023-01-24T07:42:54;5.70;99.90
26304;DHT22;57113;48.680;8.890;2023-01-24T07:45:19;5.70;99.90
26304;DHT22;57113;48.680;8.890;2023-01-24T07:47:45;5.70;99.90
26304;DHT22;57113;48.680;8.890;2023-01-24T07:50:11;5.60;99.90
26304;DHT22;57113;48.680;8.890;2023-01-24T07:52:37;5.60;99.90
26304;DHT22;57113;48.680;8.890;2023-01-24T07:55:02;5.50;99.90
26304;DHT22;57113;48.680;8.890;2023-01-24T07:57:28;5.50;99.90
26304;DHT22;57113;48.680;8.890;2023-01-24T07:59:54;5.50;99.90
26304;DHT22;57113;48.680;8.890;2023-01-24T08:02:19;5.50;99.90
26304;DHT22;57113;48.680;8.890;2023-01-24T08:04:45;5.50;99.90
26304;DHT22;57113;48.680;8.890;2023-01-24T08:07:11;5.50;99.90
26304;DHT22;57113;48.680;8.890;2023-01-24T08:09:42;5.50;99.90
26304;DHT22;57113;48.680;8.890;2023-01-24T08:12:08;5.50;99.90
26304;DHT22;57113;48.680;8.890;2023-01-24T08:14:34;5.40;99.90
26304;DHT22;57113;48.680;8.890;2023-01-24T08:16:59;5.40;99.90
26304;DHT22;57113;48.680;8.890;2023-01-24T08:19:25;5.40;99.90
26304;DHT22;57113;48.680;8.890;2023-01-24T08:21:51;5.40;99.90
26304;DHT22;57113;48.680;8.890;2023-01-24T08:24:16;5.40;99.90
26304;DHT22;57113;48.680;8.890;2023-01-24T08:26:42;5.40;99.90
26304;DHT22;57113;48.680;8.890;2023-01-24T08:29:11;5.40;99.90
26304;DHT22;57113;48.680;8.890;2023-01-24T08:31:37;5.40;99.90
26304;DHT22;57113;48.680;8.890;2023-01-24T08:34:03;5.40;99.90
26304;DHT22;57113;48.680;8.890;2023-01-24T08:36:28;5.30;99.90
26304;DHT22;57113;48.680;8.890;2023-01-24T08:38:54;5.30;99.90
26304;DHT22;57113;48.680;8.890;2023-01-24T08:41:20;5.30;99.90
26304;DHT22;57113;48.680;8.890;2023-01-24T08:43:45;5.30;99.90
26304;DHT22;57113;48.680;8.890;2023-01-24T08:46:12;5.30;99.90
26304;DHT22;57113;48.680;8.890;2023-01-24T08:48:38;5.30;99.90
26304;DHT22;57113;48.680;8.890;2023-01-24T08:51:04;5.40;99.90
26304;DHT22;57113;48.680;8.890;2023-01-24T08:53:30;5.40;99.90
26304;DHT22;57113;48.680;8.890;2023-01-24T08:55:56;5.40;99.90
26304;DHT22;57113;48.680;8.890;2023-01-24T08:58:22;5.40;99.90
26304;DHT22;57113;48.680;8.890;2023-01-24T09:00:47;5.30;99.90
26304;DHT22;57113;48.680;8.890;2023-01-24T09:03:15;5.30;99.90
26304;DHT22;57113;48.680;8.890;2023-01-24T09:05:41;5.30;99.90
26304;DHT22;57113;48.680;8.890;2023-01-24T09:08:06;5.30;99.90
26304;DHT22;57113;48.680;8.890;2023-01-24T09:10:32;5.30;99.90
26304;DHT22;57113;48.680;8.890;2023-01-24T09:12:58;5.30;99.90
26304;DHT22;57113;48.680;8.890;2023-01-24T09:15:23;5.30;99.90
26304;DHT22;57113;48.680;8.890;2023-01-24T09:17:49;5.30;99.90
26304;DHT22;57113;48.680;8.890;2023-01-24T09:20:15;5.30;99.90
26304;DHT22;57113;48.680;8.890;2023-01-24T09:22:41;5.30;99.90
26304;DHT22;57113;48.680;8.890;2023-01-24T09:25:08;5.30;99.90
26304;DHT22;57113;48.680;8.890;2023-01-24T09:27:37;5.30;99.90
26304;DHT22;57113;48.680;8.890;2023-01-24T09:30:04;5.30;99.90
26304;DHT22;57113;48.680;8.890;2023-01-24T09:32:32;5.30;99.90
26304;DHT22;57113;48.680;8.890;2023-01-24T09:34:58;5.30;99.90
26304;DHT22;57113;48.680;8.890;2023-01-24T09:37:23;5.30;99.90
26304;DHT22;57113;48.680;8.890;2023-01-24T09:39:49;5.30;99.90
26304;DHT22;57113;48.680;8.890;2023-01-24T09:42:38;5.30;99.90
26304;DHT22;57113;48.680;8.890;2023-01-24T09:45:23;5.30;99.90
26304;DHT22;57113;48.680;8.890;2023-01-24T09:48:00;5.30;99.90
26304;DHT22;57113;48.680;8.890;2023-01-24T09:50:44;5.30;99.90
26304;DHT22;57113;48.680;8.890;2023-01-24T09:53:26;5.30;99.90
26304;DHT22;57113;48.680;8.890;2023-01-24T09:55:53;5.30;99.90
26304;DHT22;57113;48.680;8.890;2023-01-24T09:58:43;5.30;99.90
26304;DHT22;57113;48.680;8.890;2023-01-24T10:01:11;5.30;99.90
26304;DHT22;57113;48.680;8.890;2023-01-24T10:03:37;5.30;99.90
26304;DHT22;57113;48.680;8.890;2023-01-24T10:06:21;5.30;99.90
26304;DHT22;57113;48.680;8.890;2023-01-24T10:09:17;5.30;99.90
26304;DHT22;57113;48.680;8.890;2023-01-24T10:11:55;5.30;99.90
26304;DHT22;57113;48.680;8.890;2023-01-24T10:17:20;5.30;99.90
26304;DHT22;57113;48.680;8.890;2023-01-24T10:19:55;5.30;99.90
26304;DHT22;57113;48.680;8.890;2023-01-24T10:25:09;5.30;99.90
26304;DHT22;57113;48.680;8.890;2023-01-24T10:27:41;5.30;99.90
26304;DHT22;57113;48.680;8.890;2023-01-24T10:30:40;5.30;99.90
26304;DHT22;57113;48.680;8.890;2023-01-24T10:33:15;5.30;99.90
26304;DHT22;57113;48.680;8.890;2023-01-24T10:36:00;5.30;99.90
26304;DHT22;57113;48.680;8.890;2023-01-24T10:38:27;5.40;99.90
26304;DHT22;57113;48.680;8.890;2023-01-24T10:40:56;5.30;99.90
26304;DHT22;57113;48.680;8.890;2023-01-24T10:43:29;5.40;99.90
26304;DHT22;57113;48.680;8.890;2023-01-24T10:48:45;5.40;99.90
26304;DHT22;57113;48.680;8.890;2023-01-24T10:51:18;5.30;99.90
26304;DHT22;57113;48.680;8.890;2023-01-24T10:53:44;5.30;99.90
26304;DHT22;57113;48.680;8.890;2023-01-24T10:56:11;5.30;99.90
26304;DHT22;57113;48.680;8.890;2023-01-24T10:58:58;5.30;99.90
26304;DHT22;57113;48.680;8.890;2023-01-24T11:01:52;5.30;99.90
26304;DHT22;57113;48.680;8.890;2023-01-24T11:04:29;5.30;99.90
26304;DHT22;57113;48.680;8.890;2023-01-24T11:06:55;5.40;99.90
26304;DHT22;57113;48.680;8.890;2023-01-24T11:09:26;5.30;99.90
26304;DHT22;57113;48.680;8.890;2023-01-24T11:11:54;5.30;99.90
26304;DHT22;57113;48.680;8.890;2023-01-24T11:14:22;5.40;99.90
26304;DHT22;57113;48.680;8.890;2023-01-24T11:16:54;5.30;99.90
26304;DHT22;57113;48.680;8.890;2023-01-24T11:19:39;5.30;99.90
26304;DHT22;57113;48.680;8.890;2023-01-24T11:22:22;5.30;99.90
26304;DHT22;57113;48.680;8.890;2023-01-24T11:24:48;5.40;99.90
26304;DHT22;57113;48.680;8.890;2023-01-24T11:27:19;5.40;99.90
26304;DHT22;57113;48.680;8.890;2023-01-24T11:29:45;5.30;99.90
26304;DHT22;57113;48.680;8.890;2023-01-24T11:35:25;5.40;99.90
26304;DHT22;57113;48.680;8.890;2023-01-24T11:40:32;5.40;99.90
26304;DHT22;57113;48.680;8.890;2023-01-24T11:49:07;5.40;99.90
26304;DHT22;57113;48.680;8.890;2023-01-24T11:51:33;5.40;99.90
26304;DHT22;57113;48.680;8.890;2023-01-24T11:59:47;5.40;99.90
26304;DHT22;57113;48.680;8.890;2023-01-24T12:02:56;5.40;99.90
26304;DHT22;57113;48.680;8.890;2023-01-24T12:13:42;5.40;99.90
26304;DHT22;57113;48.680;8.890;2023-01-24T12:21:38;5.40;99.90
26304;DHT22;57113;48.680;8.890;2023-01-24T12:24:21;5.40;99.90
26304;DHT22;57113;48.680;8.890;2023-01-24T12:26:50;5.40;99.90
26304;DHT22;57113;48.680;8.890;2023-01-24T12:32:14;5.40;99.90
26304;DHT22;57113;48.680;8.890;2023-01-24T12:34:48;5.40;99.90
26304;DHT22;57113;48.680;8.890;2023-01-24T12:40:15;5.40;99.90
26304;DHT22;57113;48.680;8.890;2023-01-24T12:45:22;5.40;99.90
26304;DHT22;57113;48.680;8.890;2023-01-24T12:48:04;5.40;99.90
26304;DHT22;57113;48.680;8.890;2023-01-24T12:50:53;5.40;99.90
26304;DHT22;57113;48.680;8.890;2023-01-24T12:53:32;5.40;99.90
26304;DHT22;57113;48.680;8.890;2023-01-24T12:56:04;5.40;99.90
26304;DHT22;57113;48.680;8.890;2023-01-24T12:58:36;5.40;99.90
26304;DHT22;57113;48.680;8.890;2023-01-24T13:01:21;5.40;99.90
26304;DHT22;57113;48.680;8.890;2023-01-24T13:04:25;5.40;99.90
26304;DHT22;57113;48.680;8.890;2023-01-24T13:12:29;5.40;99.90
26304;DHT22;57113;48.680;8.890;2023-01-24T13:15:06;5.40;99.90
26304;DHT22;57113;48.680;8.890;2023-01-24T13:18:08;5.40;99.90
26304;DHT22;57113;48.680;8.890;2023-01-24T13:23:38;5.40;99.90
26304;DHT22;57113;48.680;8.890;2023-01-24T13:26:41;5.40;99.90
26304;DHT22;57113;48.680;8.890;2023-01-24T13:29:37;5.40;99.90
26304;DHT22;57113;48.680;8.890;2023-01-24T13:32:13;5.40;99.90
26304;DHT22;57113;48.680;8.890;2023-01-24T13:34:47;5.40;99.90
26304;DHT22;57113;48.680;8.890;2023-01-24T13:37:18;5.40;99.90
26304;DHT22;57113;48.680;8.890;2023-01-24T13:39:46;5.40;99.90
26304;DHT22;57113;48.680;8.890;2023-01-24T13:44:38;5.40;99.90
26304;DHT22;57113;48.680;8.890;2023-01-24T13:47:21;5.40;99.90
26304;DHT22;57113;48.680;8.890;2023-01-24T13:54:57;5.40;99.90
26304;DHT22;57113;48.680;8.890;2023-01-24T13:57:29;5.40;99.90
26304;DHT22;57113;48.680;8.890;2023-01-24T14:00:19;5.40;99.90
26304;DHT22;57113;48.680;8.890;2023-01-24T14:10:36;5.40;99.90
26304;DHT22;57113;48.680;8.890;2023-01-24T14:13:03;5.40;99.90
26304;DHT22;57113;48.680;8.890;2023-01-24T14:15:40;5.40;99.90
26304;DHT22;57113;48.680;8.890;2023-01-24T14:21:16;5.40;99.90
26304;DHT22;57113;48.680;8.890;2023-01-24T14:23:45;5.40;99.90
26304;DHT22;57113;48.680;8.890;2023-01-24T14:26:15;5.40;99.90
26304;DHT22;57113;48.680;8.890;2023-01-24T14:28:48;5.40;99.90
26304;DHT22;57113;48.680;8.890;2023-01-24T14:31:38;5.40;99.90
26304;DHT22;57113;48.680;8.890;2023-01-24T14:34:16;5.40;99.90
26304;DHT22;57113;48.680;8.890;2023-01-24T14:36:47;5.40;99.90
26304;DHT22;57113;48.680;8.890;2023-01-24T14:39:21;5.40;99.90
26304;DHT22;57113;48.680;8.890;2023-01-24T14:41:49;5.40;99.90
26304;DHT22;57113;48.680;8.890;2023-01-24T14:44:25;5.40;99.90
26304;DHT22;57113;48.680;8.890;2023-01-24T14:47:24;5.40;99.90
26304;DHT22;57113;48.680;8.890;2023-01-24T14:49:53;5.40;99.90
26304;DHT22;57113;48.680;8.890;2023-01-24T14:52:21;5.40;99.90
26304;DHT22;57113;48.680;8.890;2023-01-24T14:55:12;5.40;99.90
26304;DHT22;57113;48.680;8.890;2023-01-24T14:57:38;5.40;99.90
26304;DHT22;57113;48.680;8.890;2023-01-24T15:00:16;5.40;99.90
26304;DHT22;57113;48.680;8.890;2023-01-24T15:02:53;5.40;99.90
26304;DHT22;57113;48.680;8.890;2023-01-24T15:05:34;5.40;99.90
26304;DHT22;57113;48.680;8.890;2023-01-24T15:08:02;5.40;99.90
26304;DHT22;57113;48.680;8.890;2023-01-24T15:10:39;5.40;99.90
26304;DHT22;57113;48.680;8.890;2023-01-24T15:13:09;5.40;99.90
26304;DHT22;57113;48.680;8.890;2023-01-24T15:15:36;5.40;99.90
26304;DHT22;57113;48.680;8.890;2023-01-24T15:18:04;5.40;99.90
26304;DHT22;57113;48.680;8.890;2023-01-24T15:20:31;5.40;99.90
26304;DHT22;57113;48.680;8.890;2023-01-24T15:22:58;5.40;99.90
26304;DHT22;57113;48.680;8.890;2023-01-24T15:25:33;5.40;99.90
26304;DHT22;57113;48.680;8.890;2023-01-24T15:28:22;5.40;99.90
26304;DHT22;57113;48.680;8.890;2023-01-24T15:30:55;5.40;99.90
26304;DHT22;57113;48.680;8.890;2023-01-24T15:33:21;5.40;99.90
26304;DHT22;57113;48.680;8.890;2023-01-24T15:35:51;5.40;99.90
26304;DHT22;57113;48.680;8.890;2023-01-24T15:38:24;5.40;99.90
26304;DHT22;57113;48.680;8.890;2023-01-24T15:40:52;5.40;99.90
26304;DHT22;57113;48.680;8.890;2023-01-24T15:43:29;5.40;99.90
26304;DHT22;57113;48.680;8.890;2023-01-24T15:46:20;5.40;99.90
26304;DHT22;57113;48.680;8.890;2023-01-24T15:49:34;5.40;99.90
26304;DHT22;57113;48.680;8.890;2023-01-24T15:54:32;5.40;99.90
26304;DHT22;57113;48.680;8.890;2023-01-24T15:56:59;5.40;99.90
26304;DHT22;57113;48.680;8.890;2023-01-24T15:59:26;5.40;99.90
26304;DHT22;57113;48.680;8.890;2023-01-24T16:01:52;5.40;99.90
26304;DHT22;57113;48.680;8.890;2023-01-24T16:04:20;5.40;99.90
26304;DHT22;57113;48.680;8.890;2023-01-24T16:06:46;5.40;99.90
26304;DHT22;57113;48.680;8.890;2023-01-24T16:09:12;5.40;99.90
26304;DHT22;57113;48.680;8.890;2023-01-24T16:11:39;5.40;99.90
26304;DHT22;57113;48.680;8.890;2023-01-24T16:14:07;5.40;99.90
26304;DHT22;57113;48.680;8.890;2023-01-24T16:16:36;5.40;99.90
26304;DHT22;57113;48.680;8.890;2023-01-24T16:19:01;5.40;99.90
26304;DHT22;57113;48.680;8.890;2023-01-24T16:21:27;5.40;99.90
26304;DHT22;57113;48.680;8.890;2023-01-24T16:23:53;5.40;99.90
26304;DHT22;57113;48.680;8.890;2023-01-24T16:26:23;5.40;99.90
26304;DHT22;57113;48.680;8.890;2023-01-24T16:28:49;5.40;99.90
26304;DHT22;57113;48.680;8.890;2023-01-24T16:31:15;5.40;99.90
26304;DHT22;57113;48.680;8.890;2023-01-24T16:33:41;5.40;99.90
26304;DHT22;57113;48.680;8.890;2023-01-24T16:36:12;5.40;99.90
26304;DHT22;57113;48.680;8.890;2023-01-24T16:38:39;5.40;99.90
26304;DHT22;57113;48.680;8.890;2023-01-24T16:41:05;5.40;99.90
26304;DHT22;57113;48.680;8.890;2023-01-24T16:43:31;5.40;99.90
26304;DHT22;57113;48.680;8.890;2023-01-24T16:45:56;5.40;99.90
26304;DHT22;57113;48.680;8.890;2023-01-24T16:48:22;5.30;99.90
26304;DHT22;57113;48.680;8.890;2023-01-24T16:50:47;5.40;99.90
26304;DHT22;57113;48.680;8.890;2023-01-24T16:53:14;5.40;99.90
26304;DHT22;57113;48.680;8.890;2023-01-24T16:55:40;5.40;99.90
26304;DHT22;57113;48.680;8.890;2023-01-24T16:58:07;5.40;99.90
26304;DHT22;57113;48.680;8.890;2023-01-24T17:00:33;5.30;99.90
26304;DHT22;57113;48.680;8.890;2023-01-24T17:03:00;5.40;99.90
26304;DHT22;57113;48.680;8.890;2023-01-24T17:05:29;5.50;99.90
26304;DHT22;57113;48.680;8.890;2023-01-24T17:07:56;5.60;99.90
26304;DHT22;57113;48.680;8.890;2023-01-24T17:10:22;5.90;99.90
26304;DHT22;57113;48.680;8.890;2023-01-24T17:12:48;6.00;99.90
26304;DHT22;57113;48.680;8.890;2023-01-24T17:15:14;6.10;99.90
26304;DHT22;57113;48.680;8.890;2023-01-24T17:17:41;6.10;99.90
26304;DHT22;57113;48.680;8.890;2023-01-24T17:20:08;6.10;99.90
26304;DHT22;57113;48.680;8.890;2023-01-24T17:22:35;6.00;99.90
26304;DHT22;57113;48.680;8.890;2023-01-24T17:25:01;6.00;99.90
26304;DHT22;57113;48.680;8.890;2023-01-24T17:27:27;5.90;99.90
26304;DHT22;57113;48.680;8.890;2023-01-24T17:29:53;5.80;99.90
26304;DHT22;57113;48.680;8.890;2023-01-24T17:32:19;5.80;99.90
26304;DHT22;57113;48.680;8.890;2023-01-24T17:34:44;5.70;99.90
26304;DHT22;57113;48.680;8.890;2023-01-24T17:37:10;5.70;99.90